Time;durP1;ratioP1;P1;durP2;ratioP2;P2;SDS_P1;SDS_P2;PMS_P1;PMS_P2;Temp;Humidity;BMP_temperature;BMP_pressure;BME280_temperature;BME280_humidity;BME280_pressure;Samples;Min_cycle;Max_cycle;Signal;HPM_P1;HPM_P2
2021/06/01 00:01:49;;;;;;;3.42;2.50;;;13.20;51.00;;;;;;5095464;28;20107;-78
2021/06/01 00:04:15;;;;;;;3.20;2.03;;;13.20;50.90;;;;;;5095288;28;20040;-78
2021/06/01 00:06:42;;;;;;;3.58;2.40;;;13.20;50.90;;;;;;5095382;28;20036;-78
2021/06/01 00:09:11;;;;;;;3.53;2.50;;;13.20;50.90;;;;;;5095324;28;20456;-78
2021/06/01 00:11:37;;;;;;;2.45;2.25;;;13.10;51.10;;;;;;5094635;28;20028;-78
2021/06/01 00:14:04;;;;;;;3.92;2.65;;;13.10;51.10;;;;;;5095291;28;20020;-78
2021/06/01 00:16:30;;;;;;;4.43;2.80;;;13.00;51.10;;;;;;5095110;28;20473;-77
2021/06/01 00:18:55;;;;;;;2.80;2.55;;;13.00;51.00;;;;;;5095044;28;20042;-78
2021/06/01 00:21:23;;;;;;;9.60;2.50;;;12.90;51.30;;;;;;5094967;28;20060;-77
2021/06/01 00:23:51;;;;;;;7.38;2.65;;;12.80;51.50;;;;;;5093874;28;20415;-78
2021/06/01 00:26:17;;;;;;;3.58;2.45;;;12.70;51.90;;;;;;5094963;28;20500;-80
2021/06/01 00:28:43;;;;;;;5.13;2.67;;;12.60;52.00;;;;;;5093504;28;20020;-78
2021/06/01 00:31:09;;;;;;;4.80;2.95;;;12.50;52.30;;;;;;5094795;28;20020;-78
2021/06/01 00:33:35;;;;;;;3.42;2.60;;;12.40;52.60;;;;;;5094688;28;20012;-78
2021/06/01 00:36:01;;;;;;;5.28;2.80;;;12.30;53.00;;;;;;5094956;28;20490;-78
2021/06/01 00:38:26;;;;;;;5.45;2.58;;;12.20;53.40;;;;;;5094772;28;20020;-79
2021/06/01 00:40:53;;;;;;;3.17;2.70;;;12.10;53.80;;;;;;5094926;28;20031;-79
2021/06/01 00:43:18;;;;;;;2.50;2.30;;;12.00;54.00;;;;;;5094826;28;20016;-79
2021/06/01 00:45:44;;;;;;;3.22;2.42;;;12.00;54.20;;;;;;5094545;28;20036;-78
2021/06/01 00:48:10;;;;;;;3.92;2.53;;;12.00;54.20;;;;;;5094679;28;20047;-79
2021/06/01 00:50:36;;;;;;;6.28;2.63;;;12.00;54.30;;;;;;5094534;28;20107;-79
2021/06/01 00:53:02;;;;;;;4.93;2.70;;;11.90;54.50;;;;;;5076430;28;20048;-79
2021/06/01 00:55:28;;;;;;;4.45;2.30;;;11.80;54.90;;;;;;5094490;28;20103;-79
2021/06/01 00:57:54;;;;;;;6.18;3.00;;;11.80;55.10;;;;;;5094527;28;20499;-79
2021/06/01 01:02:56;;;;;;;4.10;2.55;;;11.70;55.40;;;;;;5094512;28;20024;-78
2021/06/01 01:05:25;;;;;;;3.33;2.55;;;11.60;55.60;;;;;;5094417;28;20094;-78
2021/06/01 01:08:20;;;;;;;4.68;2.70;;;11.60;55.60;;;;;;5094063;28;20020;-78
2021/06/01 01:10:49;;;;;;;3.55;2.55;;;11.60;55.70;;;;;;5094246;28;20432;-77
2021/06/01 01:13:18;;;;;;;4.35;2.40;;;11.60;55.80;;;;;;5094177;28;20028;-77
2021/06/01 01:15:46;;;;;;;5.65;2.50;;;11.50;56.00;;;;;;5094064;28;20492;-78
2021/06/01 01:18:19;;;;;;;5.65;2.60;;;11.50;56.00;;;;;;5092546;28;20161;-79
2021/06/01 01:20:58;;;;;;;3.75;2.55;;;11.50;56.00;;;;;;5094028;28;20020;-78
2021/06/01 01:23:28;;;;;;;4.93;2.65;;;11.50;56.00;;;;;;5093827;28;20024;-79
2021/06/01 01:26:06;;;;;;;5.60;2.45;;;11.50;55.90;;;;;;5093800;28;20034;-78
2021/06/01 01:28:43;;;;;;;6.03;3.40;;;11.50;56.00;;;;;;5093569;28;20564;-78
2021/06/01 01:31:21;;;;;;;5.97;2.60;;;11.50;56.00;;;;;;5075480;28;20082;-77
2021/06/01 01:33:47;;;;;;;3.08;2.72;;;11.40;55.90;;;;;;5093769;28;20422;-78
2021/06/01 01:36:15;;;;;;;5.03;2.40;;;11.40;56.00;;;;;;5093480;28;20074;-78
2021/06/01 01:38:42;;;;;;;6.32;2.90;;;11.50;56.00;;;;;;5093724;28;20047;-78
2021/06/01 01:41:12;;;;;;;4.63;2.65;;;11.50;56.00;;;;;;5093355;28;20020;-78
2021/06/01 01:43:49;;;;;;;5.78;2.10;;;11.40;56.10;;;;;;5093401;28;20073;-78
2021/06/01 01:47:06;;;;;;;2.97;2.47;;;11.30;56.30;;;;;;5093456;28;20115;-78
2021/06/01 01:49:05;;;;;;;3.42;2.60;;;11.30;56.60;;;;;;5084926;28;20039;-79
2021/06/01 01:51:37;;;;;;;4.20;2.53;;;11.30;56.70;;;;;;5092994;28;20024;-79
2021/06/01 01:54:11;;;;;;;4.90;2.33;;;11.20;56.80;;;;;;5093278;28;20483;-79
2021/06/01 01:56:46;;;;;;;6.25;2.55;;;11.20;57.10;;;;;;5093165;28;20032;-79
2021/06/01 01:59:13;;;;;;;3.88;2.80;;;11.20;57.10;;;;;;5092950;28;20601;-80
2021/06/01 02:01:41;;;;;;;5.10;2.78;;;11.20;56.90;;;;;;5091815;28;20074;-79
2021/06/01 02:04:07;;;;;;;4.85;2.67;;;11.30;57.00;;;;;;5093100;28;20032;-80
2021/06/01 02:06:33;;;;;;;6.47;3.00;;;11.10;57.00;;;;;;5092972;28;20036;-80
2021/06/01 02:08:59;;;;;;;3.45;2.38;;;11.10;57.30;;;;;;5093003;28;20099;-79
2021/06/01 02:11:25;;;;;;;2.90;2.30;;;11.10;57.40;;;;;;5092865;28;20039;-79
2021/06/01 02:13:54;;;;;;;5.82;2.65;;;11.10;57.40;;;;;;5092943;28;20016;-79
2021/06/01 02:16:21;;;;;;;4.70;2.40;;;11.10;57.40;;;;;;5092850;28;20020;-80
2021/06/01 02:18:48;;;;;;;3.17;2.78;;;11.20;57.10;;;;;;5092819;28;20028;-80
2021/06/01 02:21:33;;;;;;;4.57;2.28;;;11.10;56.90;;;;;;5092287;28;20034;-78
2021/06/01 02:24:06;;;;;;;3.28;2.40;;;11.20;56.70;;;;;;5092731;28;20073;-79
2021/06/01 02:26:46;;;;;;;3.13;2.63;;;11.30;56.70;;;;;;5092707;28;20526;-78
2021/06/01 02:29:21;;;;;;;4.53;2.78;;;11.20;56.60;;;;;;5092615;28;20019;-78
2021/06/01 02:31:50;;;;;;;5.03;2.10;;;11.30;56.60;;;;;;5091613;28;20081;-78
2021/06/01 02:34:18;;;;;;;3.78;2.15;;;11.30;56.50;;;;;;5092548;28;20066;-77
2021/06/01 02:36:44;;;;;;;3.42;2.60;;;11.40;56.30;;;;;;5091437;28;20100;-78
2021/06/01 02:39:11;;;;;;;3.10;2.67;;;11.40;56.20;;;;;;5092497;28;20369;-80
2021/06/01 02:41:37;;;;;;;2.88;2.13;;;11.40;56.10;;;;;;5092596;28;20093;-78
2021/06/01 02:44:04;;;;;;;4.57;2.28;;;11.40;56.00;;;;;;5092506;28;20419;-80
2021/06/01 02:46:30;;;;;;;3.45;2.17;;;11.50;55.90;;;;;;5092494;28;20136;-81
2021/06/01 02:48:56;;;;;;;2.95;2.33;;;11.40;55.60;;;;;;5092240;28;20023;-79
2021/06/01 02:51:22;;;;;;;3.15;2.45;;;11.50;55.60;;;;;;5092321;28;20059;-79
2021/06/01 02:53:53;;;;;;;2.40;1.80;;;11.40;56.20;;;;;;5098490;28;20044;-78
2021/06/01 02:56:20;;;;;;;6.05;2.55;;;11.40;55.50;;;;;;5098732;28;20024;-78
2021/06/01 02:58:48;;;;;;;3.42;2.30;;;11.50;55.60;;;;;;5092724;28;20031;-79
2021/06/01 03:01:16;;;;;;;3.60;2.10;;;11.40;55.50;;;;;;5092394;28;20095;-79
2021/06/01 03:03:47;;;;;;;3.10;2.63;;;11.50;55.50;;;;;;5092310;28;20020;-80
2021/06/01 03:06:13;;;;;;;2.72;2.20;;;11.50;55.40;;;;;;5092598;28;20081;-80
2021/06/01 03:08:40;;;;;;;6.45;2.30;;;11.50;55.30;;;;;;5092503;28;20111;-81
2021/06/01 03:11:06;;;;;;;3.60;2.30;;;11.50;55.30;;;;;;5092449;28;20032;-79
2021/06/01 03:13:32;;;;;;;4.80;2.28;;;11.50;55.10;;;;;;5092375;28;20111;-79
2021/06/01 03:15:58;;;;;;;3.63;2.65;;;11.50;55.00;;;;;;5092400;28;20435;-79
2021/06/01 03:18:24;;;;;;;5.55;2.38;;;11.40;54.90;;;;;;5092333;28;20419;-80
2021/06/01 03:20:50;;;;;;;3.83;2.33;;;11.40;55.00;;;;;;5092588;28;20024;-79
2021/06/01 03:23:17;;;;;;;3.40;2.20;;;11.40;55.20;;;;;;5092164;28;20024;-79
2021/06/01 03:25:42;;;;;;;2.55;2.30;;;11.30;55.30;;;;;;5092300;28;20362;-79
2021/06/01 03:28:08;;;;;;;3.65;2.35;;;11.30;55.40;;;;;;5090792;28;20046;-79
2021/06/01 03:30:37;;;;;;;4.05;2.40;;;11.30;55.40;;;;;;5091938;28;20020;-79
2021/06/01 03:33:03;;;;;;;3.40;2.33;;;11.30;55.40;;;;;;5094481;28;20016;-79
2021/06/01 03:35:29;;;;;;;3.45;2.28;;;11.30;55.40;;;;;;5095941;28;20032;-79
2021/06/01 03:37:56;;;;;;;3.70;2.63;;;11.30;55.40;;;;;;5095947;28;20497;-79
2021/06/01 03:40:23;;;;;;;2.75;2.40;;;11.30;55.30;;;;;;5095828;28;20106;-79
2021/06/01 03:42:49;;;;;;;3.05;2.60;;;11.40;55.30;;;;;;5095854;28;20096;-79
2021/06/01 03:45:15;;;;;;;4.20;2.58;;;11.40;55.30;;;;;;5095572;28;20035;-79
2021/06/01 03:47:41;;;;;;;2.67;2.22;;;11.50;55.50;;;;;;5095696;28;20487;-80
2021/06/01 03:50:08;;;;;;;3.38;2.15;;;11.50;55.30;;;;;;5094242;28;20032;-79
2021/06/01 03:52:34;;;;;;;3.00;2.05;;;11.50;55.20;;;;;;5095308;28;20040;-79
2021/06/01 03:55:00;;;;;;;3.83;2.40;;;11.50;55.00;;;;;;5095752;28;20028;-80
2021/06/01 03:57:25;;;;;;;3.17;2.35;;;11.50;55.00;;;;;;5095516;28;20078;-79
2021/06/01 03:59:51;;;;;;;3.50;2.15;;;11.60;54.90;;;;;;5095644;28;20028;-80
2021/06/01 04:02:17;;;;;;;3.15;2.38;;;11.50;54.80;;;;;;5095263;28;20020;-79
2021/06/01 04:04:42;;;;;;;4.07;2.58;;;11.50;54.80;;;;;;5095274;28;20142;-80
2021/06/01 04:07:10;;;;;;;5.53;2.70;;;11.50;54.90;;;;;;5095512;28;20021;-80
2021/06/01 04:09:35;;;;;;;5.18;2.80;;;11.50;55.00;;;;;;5077011;28;20048;-80
2021/06/01 04:12:01;;;;;;;4.35;2.22;;;11.50;55.00;;;;;;5095442;28;20074;-80
2021/06/01 04:14:27;;;;;;;3.35;2.40;;;11.60;54.70;;;;;;5094205;28;20059;-82
2021/06/01 04:16:57;;;;;;;4.55;2.38;;;11.70;54.60;;;;;;5095336;28;20119;-79
2021/06/01 04:19:24;;;;;;;5.07;2.25;;;11.80;54.30;;;;;;5095422;28;20365;-83
2021/06/01 04:21:52;;;;;;;2.80;2.10;;;11.90;54.10;;;;;;5095467;28;20081;-83
2021/06/01 04:24:18;;;;;;;2.08;1.80;;;11.90;53.80;;;;;;5095115;28;20496;-80
2021/06/01 04:26:43;;;;;;;3.05;2.65;;;12.00;53.50;;;;;;5095042;28;20020;-80
2021/06/01 04:29:09;;;;;;;5.07;2.50;;;12.10;53.40;;;;;;5095091;28;20028;-81
2021/06/01 04:31:35;;;;;;;2.55;2.28;;;12.10;53.20;;;;;;5095121;28;20024;-80
2021/06/01 04:34:00;;;;;;;2.78;2.05;;;12.20;53.00;;;;;;5095151;28;20028;-81
2021/06/01 04:36:26;;;;;;;2.63;1.70;;;12.30;52.90;;;;;;5095109;28;20114;-79
2021/06/01 04:38:55;;;;;;;4.70;2.95;;;12.30;52.60;;;;;;5095763;28;20496;-83
2021/06/01 04:41:21;;;;;;;5.38;2.42;;;12.40;52.30;;;;;;5095641;28;20024;-82
2021/06/01 04:43:47;;;;;;;4.78;2.70;;;12.40;52.30;;;;;;5095436;28;20081;-80
2021/06/01 04:46:12;;;;;;;4.40;2.75;;;12.50;52.20;;;;;;5095224;28;20085;-79
2021/06/01 04:48:38;;;;;;;4.70;2.88;;;12.50;52.10;;;;;;5095345;28;20012;-83
2021/06/01 04:51:04;;;;;;;5.03;2.80;;;12.60;52.00;;;;;;5095124;28;20024;-81
2021/06/01 04:53:29;;;;;;;5.65;2.67;;;12.70;51.90;;;;;;5094684;28;20044;-81
2021/06/01 04:55:55;;;;;;;4.07;2.67;;;12.70;51.60;;;;;;5095096;28;20020;-80
2021/06/01 04:58:21;;;;;;;5.18;2.45;;;12.80;51.40;;;;;;5095021;28;20024;-81
2021/06/01 05:00:46;;;;;;;9.48;3.10;;;12.90;51.10;;;;;;5094852;28;20043;-80
2021/06/01 05:03:12;;;;;;;5.28;2.30;;;13.10;50.60;;;;;;5095139;28;20024;-79
2021/06/01 05:05:37;;;;;;;3.47;2.45;;;13.10;50.10;;;;;;5095445;28;20544;-80
2021/06/01 05:08:03;;;;;;;3.08;1.80;;;13.30;49.70;;;;;;5095349;28;20024;-80
2021/06/01 05:10:29;;;;;;;4.35;2.15;;;13.30;49.30;;;;;;5095089;28;20024;-80
2021/06/01 05:12:55;;;;;;;6.88;2.50;;;13.50;49.10;;;;;;5095043;28;20016;-80
2021/06/01 05:15:20;;;;;;;4.80;2.40;;;13.60;49.00;;;;;;5093704;28;20394;-81
2021/06/01 05:17:46;;;;;;;5.72;2.03;;;13.70;49.30;;;;;;5095383;28;20023;-80
2021/06/01 05:20:12;;;;;;;2.88;2.22;;;13.80;49.50;;;;;;5092902;28;20028;-80
2021/06/01 05:22:38;;;;;;;3.13;2.80;;;13.80;49.40;;;;;;5094846;28;20022;-80
2021/06/01 05:25:04;;;;;;;3.30;2.60;;;13.80;49.40;;;;;;5094563;28;20032;-80
2021/06/01 05:27:29;;;;;;;4.10;2.33;;;13.80;49.50;;;;;;5094458;28;20055;-81
2021/06/01 05:29:59;;;;;;;5.70;2.42;;;13.90;49.20;;;;;;5095281;28;20378;-81
2021/06/01 05:32:57;;;;;;;4.38;2.72;;;13.90;49.00;;;;;;5094267;28;20081;-81
2021/06/01 05:35:26;;;;;;;2.50;2.30;;;14.00;48.80;;;;;;5094888;28;20024;-80
2021/06/01 05:37:52;;;;;;;2.78;2.22;;;14.10;48.40;;;;;;5094525;28;20035;-83
2021/06/01 05:40:18;;;;;;;6.47;2.92;;;14.20;48.00;;;;;;5094033;28;20032;-80
2021/06/01 05:42:44;;;;;;;5.10;2.95;;;14.30;48.10;;;;;;5094211;28;20024;-80
2021/06/01 05:45:10;;;;;;;2.33;2.10;;;14.10;48.20;;;;;;5095018;28;20439;-80
2021/06/01 05:47:35;;;;;;;2.75;2.17;;;14.20;48.30;;;;;;5095168;28;20024;-82
2021/06/01 05:50:02;;;;;;;2.97;1.90;;;14.30;49.00;;;;;;5096329;28;20032;-79
2021/06/01 05:52:28;;;;;;;5.30;2.38;;;14.50;47.90;;;;;;5092569;28;20071;-79
2021/06/01 05:54:53;;;;;;;5.10;2.20;;;14.70;47.40;;;;;;5094762;28;20050;-81
2021/06/01 05:57:19;;;;;;;2.78;2.30;;;14.80;46.60;;;;;;5092852;28;20024;-81
2021/06/01 05:59:46;;;;;;;2.58;1.90;;;14.90;46.70;;;;;;5076077;28;20024;-81
2021/06/01 06:02:11;;;;;;;4.60;2.78;;;15.10;47.00;;;;;;5075892;28;20416;-80
2021/06/01 06:04:37;;;;;;;5.13;2.30;;;15.20;46.30;;;;;;5093447;28;20026;-82
2021/06/01 06:07:03;;;;;;;5.30;2.00;;;15.30;46.30;;;;;;5092529;28;20043;-82
2021/06/01 06:09:29;;;;;;;4.03;2.08;;;15.40;46.50;;;;;;5092647;28;20365;-81
2021/06/01 06:11:54;;;;;;;5.07;2.10;;;15.40;46.70;;;;;;5093661;28;20060;-81
2021/06/01 06:14:20;;;;;;;4.95;2.25;;;15.50;46.60;;;;;;5094181;28;20364;-82
2021/06/01 06:16:50;;;;;;;3.50;2.60;;;15.70;46.20;;;;;;5087605;28;20047;-82
2021/06/01 06:19:16;;;;;;;3.10;2.22;;;15.80;45.80;;;;;;5102868;28;20046;-82
2021/06/01 06:21:41;;;;;;;4.13;2.15;;;15.90;44.70;;;;;;5094686;28;20028;-79
2021/06/01 06:24:07;;;;;;;2.70;1.88;;;15.90;44.20;;;;;;5093492;28;20388;-79
2021/06/01 06:26:33;;;;;;;3.05;2.20;;;16.10;43.50;;;;;;5094159;28;20064;-80
2021/06/01 06:28:58;;;;;;;4.47;2.20;;;16.10;43.40;;;;;;5093389;28;20097;-81
2021/06/01 06:31:24;;;;;;;4.63;1.98;;;16.20;43.20;;;;;;5093903;28;20050;-82
2021/06/01 06:33:50;;;;;;;3.63;1.90;;;16.30;42.70;;;;;;5098086;28;20028;-81
2021/06/01 06:36:16;;;;;;;5.07;1.60;;;16.30;41.70;;;;;;5092326;28;20020;-81
2021/06/01 06:38:45;;;;;;;6.07;1.30;;;16.40;39.50;;;;;;5093638;28;20077;-80
2021/06/01 06:41:13;;;;;;;2.28;1.38;;;16.50;37.80;;;;;;5093082;28;20400;-79
2021/06/01 06:43:41;;;;;;;9.25;1.50;;;16.60;36.60;;;;;;5074712;28;20556;-79
2021/06/01 06:46:12;;;;;;;3.72;2.00;;;16.50;36.30;;;;;;5092791;28;20048;-79
2021/06/01 06:48:38;;;;;;;5.90;1.88;;;16.70;36.00;;;;;;5093073;28;20027;-79
2021/06/01 06:51:12;;;;;;;4.32;1.40;;;16.60;35.90;;;;;;5092681;28;20028;-83
2021/06/01 06:53:51;;;;;;;4.10;1.67;;;16.60;35.70;;;;;;5093351;28;20127;-78
2021/06/01 06:56:17;;;;;;;3.65;1.83;;;16.70;35.70;;;;;;5093010;28;20021;-79
2021/06/01 06:58:43;;;;;;;4.20;1.60;;;16.70;35.70;;;;;;5092904;28;20028;-78
2021/06/01 07:01:12;;;;;;;2.25;1.40;;;16.70;35.60;;;;;;5092764;28;20385;-78
2021/06/01 07:03:38;;;;;;;5.63;1.70;;;16.70;35.20;;;;;;5093199;28;20024;-79
2021/06/01 07:06:04;;;;;;;2.90;1.38;;;16.70;35.00;;;;;;5093774;28;20369;-82
2021/06/01 07:08:30;;;;;;;2.28;1.40;;;16.80;34.80;;;;;;5095808;28;20379;-80
2021/06/01 07:10:56;;;;;;;1.98;1.60;;;16.80;34.80;;;;;;5096008;28;20111;-80
2021/06/01 07:13:25;;;;;;;2.38;1.40;;;16.90;34.90;;;;;;5097112;28;20055;-81
2021/06/01 07:15:52;;;;;;;1.40;1.30;;;16.90;34.80;;;;;;5095564;28;20050;-80
2021/06/01 07:18:18;;;;;;;3.08;1.52;;;17.10;34.50;;;;;;5097098;28;20429;-80
2021/06/01 07:20:44;;;;;;;5.88;1.60;;;17.10;34.10;;;;;;5097255;28;20055;-79
2021/06/01 07:23:10;;;;;;;3.55;1.98;;;17.10;33.90;;;;;;5096865;28;20031;-79
2021/06/01 07:25:36;;;;;;;4.43;1.83;;;17.10;33.90;;;;;;5096485;28;20032;-79
2021/06/01 07:28:03;;;;;;;6.68;1.70;;;17.30;33.80;;;;;;5096854;28;20081;-81
2021/06/01 07:30:29;;;;;;;3.65;1.75;;;17.30;33.50;;;;;;5097352;28;20028;-80
2021/06/01 07:32:54;;;;;;;2.97;1.73;;;17.30;33.40;;;;;;5096598;28;20430;-79
2021/06/01 07:35:21;;;;;;;2.38;1.42;;;17.40;33.20;;;;;;5096486;28;20028;-80
2021/06/01 07:37:47;;;;;;;1.83;1.67;;;17.40;33.30;;;;;;5096619;28;20020;-80
2021/06/01 07:40:13;;;;;;;7.45;1.55;;;17.40;32.90;;;;;;5096900;28;20027;-79
2021/06/01 07:42:38;;;;;;;10.63;2.30;;;17.40;32.60;;;;;;5096543;28;20099;-76
2021/06/01 07:45:05;;;;;;;2.08;1.60;;;17.50;33.40;;;;;;5096523;28;20067;-74
2021/06/01 07:47:30;;;;;;;4.32;2.08;;;17.70;33.00;;;;;;5096285;28;20044;-74
2021/06/01 07:49:56;;;;;;;6.85;1.88;;;17.80;33.80;;;;;;5096330;28;20179;-74
2021/06/01 07:52:21;;;;;;;3.10;1.35;;;17.90;33.40;;;;;;5095671;28;20094;-74
2021/06/01 07:54:47;;;;;;;5.60;1.50;;;18.00;33.00;;;;;;5095982;28;20560;-74
2021/06/01 07:57:12;;;;;;;2.05;1.50;;;18.10;32.60;;;;;;5096065;28;20040;-74
2021/06/01 07:59:38;;;;;;;3.55;2.00;;;18.00;32.20;;;;;;5099584;28;20043;-74
2021/06/01 08:02:04;;;;;;;2.15;1.42;;;18.00;31.80;;;;;;5096403;28;20020;-74
2021/06/01 08:04:29;;;;;;;3.67;1.58;;;18.20;32.00;;;;;;5095842;28;20111;-74
2021/06/01 08:07:00;;;;;;;3.50;1.42;;;18.30;31.60;;;;;;5095812;28;20021;-73
2021/06/01 08:09:26;;;;;;;7.10;1.88;;;18.30;30.90;;;;;;5096298;28;20016;-74
2021/06/01 08:11:51;;;;;;;2.33;1.48;;;18.40;31.00;;;;;;5097475;28;20480;-75
2021/06/01 08:14:17;;;;;;;2.22;1.35;;;18.40;30.50;;;;;;5097390;28;20438;-73
2021/06/01 08:16:45;;;;;;;2.42;1.52;;;18.40;29.70;;;;;;5096721;28;20031;-75
2021/06/01 08:19:14;;;;;;;1.77;1.20;;;18.50;29.70;;;;;;5095996;28;20028;-75
2021/06/01 08:21:59;;;;;;;1.90;1.70;;;18.60;29.50;;;;;;5097006;28;20115;-74
2021/06/01 08:24:25;;;;;;;3.13;1.90;;;18.70;29.40;;;;;;5101323;28;20024;-73
2021/06/01 08:26:51;;;;;;;4.68;1.45;;;18.80;29.30;;;;;;5104165;28;20028;-74
2021/06/01 08:29:17;;;;;;;2.95;1.42;;;18.70;29.80;;;;;;5110424;28;20028;-75
2021/06/01 08:31:44;;;;;;;2.47;1.80;;;19.00;29.80;;;;;;5107979;28;20096;-75
2021/06/01 08:34:10;;;;;;;1.77;1.40;;;19.00;28.80;;;;;;5104091;28;20038;-77
2021/06/01 08:36:36;;;;;;;3.08;1.77;;;19.00;27.60;;;;;;5100629;28;20028;-75
2021/06/01 08:39:05;;;;;;;2.85;1.60;;;18.90;26.40;;;;;;5106144;28;20027;-75
2021/06/01 08:41:32;;;;;;;2.00;1.40;;;19.00;26.00;;;;;;5104353;28;20020;-75
2021/06/01 08:44:03;;;;;;;4.43;1.80;;;18.90;26.40;;;;;;5082823;28;20036;-75
2021/06/01 08:46:29;;;;;;;3.65;1.60;;;19.00;27.30;;;;;;5099506;28;20036;-75
2021/06/01 08:48:55;;;;;;;2.95;1.40;;;19.00;27.00;;;;;;5102562;28;20020;-76
2021/06/01 08:51:23;;;;;;;2.55;1.17;;;19.20;27.20;;;;;;5104768;28;20020;-75
2021/06/01 08:53:51;;;;;;;1.48;1.25;;;19.20;26.80;;;;;;5101888;28;20068;-75
2021/06/01 08:56:17;;;;;;;3.10;1.65;;;19.30;27.00;;;;;;5099992;28;20024;-75
2021/06/01 08:58:44;;;;;;;2.78;1.35;;;19.30;26.90;;;;;;5101362;28;20020;-75
2021/06/01 09:01:11;;;;;;;1.98;1.30;;;19.30;26.60;;;;;;5119085;28;20012;-75
2021/06/01 09:03:47;;;;;;;3.58;1.30;;;19.20;26.00;;;;;;5118490;28;20019;-75
2021/06/01 09:06:19;;;;;;;1.38;1.17;;;19.30;26.50;;;;;;5113820;28;20103;-76
2021/06/01 09:22:33;;;;;;;4.03;1.60;;;19.70;26.50;;;;;;5099992;28;20051;-81
2021/06/01 09:25:11;;;;;;;1.80;1.38;;;19.80;25.90;;;;;;5094474;28;20031;-80
2021/06/01 09:27:44;;;;;;;1.77;1.30;;;19.70;25.90;;;;;;5095957;28;20021;-80
2021/06/01 09:30:15;;;;;;;2.38;1.20;;;19.80;26.10;;;;;;5095282;28;20385;-80
2021/06/01 09:32:43;;;;;;;3.78;1.52;;;20.00;26.70;;;;;;5095351;28;20062;-80
2021/06/01 09:35:09;;;;;;;4.00;1.35;;;20.20;27.40;;;;;;5096596;28;20027;-81
2021/06/01 09:37:36;;;;;;;2.22;1.58;;;20.30;26.60;;;;;;5094817;28;20028;-81
2021/06/01 09:40:19;;;;;;;1.83;1.42;;;20.20;26.10;;;;;;5094135;28;20043;-81
2021/06/01 09:42:50;;;;;;;3.28;1.50;;;20.30;26.30;;;;;;5094246;28;20027;-81
2021/06/01 09:45:18;;;;;;;2.90;1.45;;;20.30;26.90;;;;;;5093825;28;20035;-81
2021/06/01 09:47:59;;;;;;;3.55;1.38;;;20.30;27.20;;;;;;5094069;28;20073;-80
2021/06/01 09:53:02;;;;;;;2.75;1.63;;;20.50;26.00;;;;;;5093730;28;20058;-80
2021/06/01 09:55:34;;;;;;;2.03;1.48;;;20.60;26.00;;;;;;5093581;28;20055;-80
2021/06/01 09:58:01;;;;;;;2.47;1.30;;;20.60;25.90;;;;;;5093660;28;20099;-79
2021/06/01 10:00:28;;;;;;;2.40;1.35;;;20.70;26.40;;;;;;5093462;28;20054;-80
2021/06/01 10:03:02;;;;;;;2.97;1.70;;;20.90;26.60;;;;;;5093519;28;20365;-79
2021/06/01 10:05:34;;;;;;;2.55;1.63;;;21.00;27.10;;;;;;5093969;28;20117;-79
2021/06/01 10:08:10;;;;;;;2.80;1.63;;;21.20;26.40;;;;;;5093546;28;20035;-78
2021/06/01 10:10:35;;;;;;;5.30;1.60;;;21.20;25.70;;;;;;5092167;28;20020;-80
2021/06/01 10:13:04;;;;;;;3.00;1.58;;;21.20;25.50;;;;;;5094068;28;20077;-79
2021/06/01 10:15:31;;;;;;;1.55;1.20;;;21.20;25.60;;;;;;5094292;28;20054;-79
2021/06/01 10:17:57;;;;;;;3.78;1.70;;;21.20;25.40;;;;;;5093589;28;20519;-78
2021/06/01 10:20:26;;;;;;;2.65;1.50;;;21.30;26.10;;;;;;5093910;28;20487;-80
2021/06/01 10:22:52;;;;;;;4.10;2.15;;;21.40;25.80;;;;;;5094016;28;20024;-80
2021/06/01 10:25:19;;;;;;;2.42;1.80;;;21.40;25.30;;;;;;5093963;28;20429;-79
2021/06/01 10:27:46;;;;;;;1.70;1.50;;;21.30;25.20;;;;;;5094384;28;20023;-78
2021/06/01 10:30:14;;;;;;;4.20;1.40;;;21.10;25.20;;;;;;5092941;28;20035;-78
2021/06/01 10:33:04;;;;;;;4.15;1.50;;;21.20;25.50;;;;;;5093155;28;20082;-78
2021/06/01 10:35:36;;;;;;;5.55;2.15;;;21.10;25.70;;;;;;5092966;28;20151;-79
2021/06/01 10:52:05;;;;;;;4.53;1.30;;;22.30;24.40;;;;;;5092930;28;20024;-80
2021/06/01 10:54:44;;;;;;;1.58;1.30;;;22.40;24.10;;;;;;5093065;28;20107;-79
2021/06/01 10:57:13;;;;;;;2.05;1.35;;;22.60;24.50;;;;;;5093087;28;20105;-77
2021/06/01 11:02:20;;;;;;;1.92;1.27;;;22.70;23.90;;;;;;5092689;28;20421;-78
2021/06/01 11:05:13;;;;;;;2.60;1.52;;;22.80;23.50;;;;;;5092773;28;20396;-79
2021/06/01 11:07:51;;;;;;;2.83;1.23;;;22.90;23.30;;;;;;5092998;28;20027;-78
2021/06/01 11:10:45;;;;;;;2.00;1.45;;;23.00;22.80;;;;;;5092568;28;20024;-78
2021/06/01 11:13:31;;;;;;;2.63;1.83;;;23.00;22.60;;;;;;5092922;28;20028;-77
2021/06/01 11:15:59;;;;;;;5.05;1.65;;;23.10;22.60;;;;;;5092464;28;20024;-78
2021/06/01 11:18:33;;;;;;;1.85;1.17;;;23.30;22.50;;;;;;5092420;28;20099;-78
2021/06/01 11:21:09;;;;;;;2.40;1.45;;;23.50;22.40;;;;;;5093041;28;20024;-84
2021/06/01 11:35:47;;;;;;;2.08;1.48;;;24.00;21.50;;;;;;5030291;28;20044;-79
2021/06/01 11:38:24;;;;;;;1.60;1.48;;;23.80;22.40;;;;;;5030854;28;20049;-81
2021/06/01 11:43:24;;;;;;;2.33;1.30;;;23.90;22.20;;;;;;5092594;28;20028;-82
2021/06/01 11:51:23;;;;;;;4.28;1.50;;;24.40;22.20;;;;;;5060901;28;20503;-79
2021/06/01 11:53:54;;;;;;;2.92;1.55;;;24.70;22.10;;;;;;5094233;28;20040;-78
2021/06/01 12:05:09;;;;;;;2.25;1.55;;;25.30;21.50;;;;;;5078471;28;20181;-79
2021/06/01 12:18:39;;;;;;;1.58;1.45;;;25.20;20.50;;;;;;5107791;28;20383;-79
2021/06/01 12:21:07;;;;;;;4.50;1.23;;;25.30;20.50;;;;;;5097408;28;20102;-79
2021/06/01 12:23:47;;;;;;;2.25;1.23;;;25.30;20.60;;;;;;5095291;28;20149;-80
2021/06/01 12:26:24;;;;;;;3.10;1.25;;;25.30;20.70;;;;;;5095878;28;20039;-78
2021/06/01 12:32:04;;;;;;;2.03;1.15;;;24.80;20.80;;;;;;5095097;28;20078;-80
2021/06/01 12:45:46;;;;;;;1.83;0.98;;;24.40;21.70;;;;;;5095141;28;20042;-79
2021/06/01 13:08:47;;;;;;;1.50;1.02;;;26.10;20.00;;;;;;5094771;28;20157;-81
2021/06/01 13:19:56;;;;;;;2.08;1.05;;;26.40;18.50;;;;;;5094574;28;20067;-80
2021/06/01 13:22:47;;;;;;;2.38;1.20;;;26.60;18.30;;;;;;5094367;28;20016;-80
2021/06/01 13:47:55;;;;;;;2.85;1.20;;;26.70;17.80;;;;;;5093992;28;20465;-79
2021/06/01 13:50:29;;;;;;;2.58;0.95;;;26.70;18.00;;;;;;5093973;28;20053;-80
2021/06/01 13:55:45;;;;;;;3.47;1.20;;;27.10;18.00;;;;;;5094050;28;20046;-81
2021/06/01 14:20:15;;;;;;;2.65;1.40;;;27.80;17.60;;;;;;5093741;28;20507;-83
2021/06/01 14:36:21;;;;;;;5.73;1.27;;;27.90;15.40;;;;;;5092840;28;20563;-82
2021/06/01 14:39:16;;;;;;;1.30;1.20;;;27.90;15.10;;;;;;5075518;28;20306;-81
2021/06/01 15:04:33;;;;;;;1.40;1.15;;;28.30;14.30;;;;;;5093325;28;20157;-81
2021/06/01 15:24:29;;;;;;;2.70;1.00;;;27.70;14.20;;;;;;5093057;28;20491;-81
2021/06/01 15:48:41;;;;;;;3.10;1.10;;;28.80;14.30;;;;;;5096798;28;20533;-80
2021/06/01 15:51:41;;;;;;;1.33;1.05;;;28.70;14.00;;;;;;5096338;28;20025;-81
2021/06/01 16:13:18;;;;;;;3.17;1.35;;;28.50;13.50;;;;;;5096023;28;20028;-81
2021/06/01 16:21:28;;;;;;;2.88;1.20;;;28.60;13.60;;;;;;5095210;28;20031;-81
2021/06/01 17:04:49;;;;;;;2.05;1.55;;;27.50;13.40;;;;;;5094612;28;20092;-82
2021/06/01 17:13:15;;;;;;;1.48;0.90;;;27.10;13.60;;;;;;5094803;28;20035;-82
2021/06/01 17:15:41;;;;;;;1.15;1.05;;;27.00;13.80;;;;;;5076629;28;20085;-81
2021/06/01 17:18:19;;;;;;;1.88;1.20;;;26.90;13.30;;;;;;5094487;28;20054;-81
2021/06/01 17:32:13;;;;;;;2.97;0.95;;;26.50;13.90;;;;;;5094446;28;20211;-82
2021/06/01 17:34:44;;;;;;;3.30;1.17;;;26.50;14.10;;;;;;5094053;28;20024;-81
2021/06/01 17:37:09;;;;;;;2.22;1.10;;;26.40;14.30;;;;;;5092631;28;20032;-81
2021/06/01 17:39:36;;;;;;;1.70;1.35;;;26.20;14.40;;;;;;5094028;28;20095;-82
2021/06/01 17:42:05;;;;;;;1.42;1.02;;;26.00;14.60;;;;;;5092445;28;20073;-82
2021/06/01 17:44:31;;;;;;;4.10;1.45;;;26.00;14.90;;;;;;5093723;28;20107;-81
2021/06/01 17:47:03;;;;;;;5.63;1.38;;;25.90;14.70;;;;;;5093793;28;20028;-82
2021/06/01 17:49:30;;;;;;;10.25;1.85;;;25.80;14.90;;;;;;5092701;28;20024;-82
2021/06/01 17:51:59;;;;;;;4.50;1.45;;;25.70;15.20;;;;;;5074634;28;20392;-76
2021/06/01 17:54:32;;;;;;;2.28;1.13;;;25.50;15.40;;;;;;5093431;28;20093;-76
2021/06/01 17:56:59;;;;;;;3.25;1.30;;;25.30;15.90;;;;;;5093415;28;20028;-75
2021/06/01 17:59:26;;;;;;;3.53;1.48;;;25.00;16.30;;;;;;5093078;28;20024;-76
2021/06/01 18:01:53;;;;;;;2.03;1.35;;;24.80;16.60;;;;;;5093248;28;20028;-76
2021/06/01 18:04:23;;;;;;;2.33;1.35;;;24.80;17.00;;;;;;5093198;28;20065;-76
2021/06/01 18:06:53;;;;;;;4.22;1.52;;;24.60;17.40;;;;;;5094824;28;20036;-76
2021/06/01 18:12:00;;;;;;;3.95;1.25;;;24.40;17.90;;;;;;5093483;28;20087;-76
2021/06/01 19:21:23;;;;;;;2.97;1.20;;;21.90;25.80;;;;;;5097296;28;20051;-82
2021/06/01 19:50:27;;;;;;;6.95;2.05;;;19.90;33.50;;;;;;5096276;28;19912;-78
2021/06/01 19:52:55;;;;;;;2.30;2.10;;;19.70;33.80;;;;;;5077724;28;20408;-78
2021/06/01 19:55:24;;;;;;;5.97;2.03;;;19.60;34.00;;;;;;5095904;28;20020;-79
2021/06/01 19:57:50;;;;;;;2.83;2.15;;;19.50;34.40;;;;;;5095954;28;20036;-79